createdAt,value
2019-03-21T00:03:12.922Z,101625.41
2019-03-21T00:08:55.713Z,101618.75
2019-03-21T00:12:03.769Z,101619.70
2019-03-21T00:14:54.974Z,101613.41
2019-03-21T00:20:53.103Z,101624.31
2019-03-21T00:23:43.157Z,101627.47
2019-03-21T00:26:52.710Z,101624.06
2019-03-21T00:29:24.808Z,101629.48
2019-03-21T00:31:57.067Z,101635.52
2019-03-21T00:34:28.347Z,101636.38
2019-03-21T00:37:18.422Z,101634.17
2019-03-21T00:39:49.643Z,101634.17
2019-03-21T00:42:20.441Z,101632.84
2019-03-21T00:44:52.575Z,101636.47
2019-03-21T00:50:14.818Z,101635.95
2019-03-21T00:52:46.001Z,101638.48
2019-03-21T00:55:36.189Z,101630.73
2019-03-21T00:58:19.359Z,101629.52
2019-03-21T01:01:08.512Z,101633.20
2019-03-21T01:03:39.009Z,101619.84
2019-03-21T01:06:12.475Z,101622.42
2019-03-21T01:09:02.591Z,101618.28
2019-03-21T01:11:33.888Z,101617.42
2019-03-21T01:14:04.454Z,101614.88
2019-03-21T01:16:35.151Z,101625.74
2019-03-21T01:19:05.631Z,101621.62
2019-03-21T01:21:35.938Z,101617.88
2019-03-21T01:24:06.583Z,101622.50
2019-03-21T01:26:36.907Z,101627.13
2019-03-21T01:29:07.252Z,101626.05
2019-03-21T01:32:15.223Z,101625.21
2019-03-21T01:34:46.294Z,101623.54
2019-03-21T01:37:35.490Z,101633.09
2019-03-21T01:43:15.118Z,101614.22
2019-03-21T01:45:45.490Z,101617.69
2019-03-21T01:48:15.821Z,101606.53
2019-03-21T01:51:05.368Z,101604.23
2019-03-21T01:53:54.765Z,101609.76
2019-03-21T01:56:43.942Z,101604.52
2019-03-21T01:59:33.201Z,101607.88
2019-03-21T02:10:18.069Z,101611.73
2019-03-21T02:12:48.493Z,101612.09
2019-03-21T02:15:37.646Z,101603.25
2019-03-21T02:21:16.199Z,101613.42
2019-03-21T02:23:46.612Z,101608.09
2019-03-21T02:26:17.657Z,101605.21
2019-03-21T02:29:06.848Z,101607.05
2019-03-21T02:31:40.313Z,101606.87
2019-03-21T02:34:10.727Z,101608.56
2019-03-21T02:37:00.230Z,101611.84
2019-03-21T02:39:30.808Z,101618.34
2019-03-21T02:42:01.493Z,101618.94
2019-03-21T02:44:32.526Z,101614.34
2019-03-21T02:47:02.919Z,101608.80
2019-03-21T02:52:43.361Z,101612.06
2019-03-21T02:55:13.922Z,101610.95
2019-03-21T02:57:46.349Z,101606.70
2019-03-21T03:00:35.525Z,101606.65
2019-03-21T03:03:06.233Z,101614.50
2019-03-21T03:05:36.611Z,101603.00
2019-03-21T03:11:11.037Z,101601.67
2019-03-21T03:13:43.375Z,101606.27
2019-03-21T03:16:32.633Z,101613.52
2019-03-21T03:19:23.720Z,101610.23
2019-03-21T03:24:43.650Z,101620.58
2019-03-21T03:27:32.851Z,101623.40
2019-03-21T03:30:03.334Z,101616.37
2019-03-21T03:32:52.527Z,101618.08
2019-03-21T03:35:23.029Z,101619.88
2019-03-21T03:38:13.863Z,101606.47
2019-03-21T03:40:46.811Z,101603.81
2019-03-21T03:46:06.746Z,101598.52
2019-03-21T03:48:37.071Z,101590.41
2019-03-21T03:51:26.233Z,101594.47
2019-03-21T03:53:56.674Z,101609.80
2019-03-21T03:56:45.931Z,101601.92
2019-03-21T04:02:17.319Z,101604.45
2019-03-21T04:04:50.348Z,101599.34
2019-03-21T04:10:54.989Z,101608.45
2019-03-21T04:13:26.285Z,101610.31
2019-03-21T04:15:56.593Z,101608.92
2019-03-21T04:18:46.586Z,101605.45
2019-03-21T04:24:00.308Z,101611.72
2019-03-21T04:29:40.950Z,101619.94
2019-03-21T04:35:02.027Z,101618.90
2019-03-21T04:37:52.874Z,101619.50
2019-03-21T04:40:24.212Z,101618.91
2019-03-21T04:43:15.324Z,101619.41
2019-03-21T04:45:45.904Z,101615.22
2019-03-21T04:54:09.203Z,101601.12
2019-03-21T04:56:40.360Z,101628.31
2019-03-21T04:59:29.663Z,101626.19
2019-03-21T05:02:00.095Z,101630.28
2019-03-21T05:04:30.429Z,101636.16
2019-03-21T05:07:00.860Z,101622.69
2019-03-21T05:09:32.265Z,101621.65
2019-03-21T05:12:02.685Z,101631.47
2019-03-21T05:14:52.052Z,101623.71
2019-03-21T05:17:23.394Z,101623.59
2019-03-21T05:23:03.434Z,101628.22
2019-03-21T05:25:35.608Z,101631.73
2019-03-21T05:28:24.947Z,101629.28
2019-03-21T05:31:01.571Z,101629.46
2019-03-21T05:42:01.208Z,101621.83
2019-03-21T05:45:06.915Z,101620.38
2019-03-21T05:47:38.345Z,101622.39
2019-03-21T05:53:13.654Z,101617.96
2019-03-21T05:59:32.797Z,101631.73
2019-03-21T06:02:05.485Z,101634.80
2019-03-21T06:04:37.971Z,101637.92
2019-03-21T06:07:21.300Z,101647.13
2019-03-21T06:10:11.507Z,101647.93
2019-03-21T06:13:00.607Z,101644.69
2019-03-21T06:15:49.675Z,101647.51
2019-03-21T06:18:43.025Z,101657.25
2019-03-21T06:21:54.589Z,101655.75
2019-03-21T06:25:02.655Z,101661.52
2019-03-21T06:27:51.808Z,101662.52
2019-03-21T06:30:41.090Z,101663.17
2019-03-21T06:33:11.852Z,101664.11
2019-03-21T06:35:42.220Z,101672.80
2019-03-21T06:38:12.838Z,101666.90
2019-03-21T06:43:32.506Z,101666.54
2019-03-21T06:46:03.071Z,101672.80
2019-03-21T06:48:52.355Z,101665.98
2019-03-21T06:51:33.992Z,101665.85
2019-03-21T06:54:04.407Z,101673.12
2019-03-21T06:56:53.466Z,101670.85
2019-03-21T06:59:25.904Z,101673.23
2019-03-21T07:02:27.473Z,101676.91
2019-03-21T07:04:47.296Z,101672.06
2019-03-21T07:07:20.447Z,101676.09
2019-03-21T07:13:01.973Z,101674.18
2019-03-21T07:15:32.549Z,101676.06
2019-03-21T07:18:21.765Z,101676.73
2019-03-21T07:20:54.451Z,101677.83
2019-03-21T07:26:55.323Z,101690.66
2019-03-21T07:29:42.007Z,101688.95
2019-03-21T07:32:40.928Z,101686.27
2019-03-21T07:35:11.494Z,101693.84
2019-03-21T07:37:41.965Z,101687.54
2019-03-21T07:40:13.498Z,101690.04
2019-03-21T07:43:03.957Z,101692.81
2019-03-21T07:45:34.654Z,101695.36
2019-03-21T07:48:05.521Z,101698.13
2019-03-21T07:54:19.833Z,101702.69
2019-03-21T07:57:09.021Z,101686.81
2019-03-21T08:02:45.035Z,101692.08
2019-03-21T08:05:40.473Z,101690.58
2019-03-21T08:08:08.681Z,101686.27
2019-03-21T08:10:59.164Z,101690.34
2019-03-21T08:14:23.717Z,101694.16
2019-03-21T08:26:19.914Z,101688.07
2019-03-21T08:29:28.085Z,101682.91
2019-03-21T08:31:58.733Z,101684.54
2019-03-21T08:35:09.484Z,101683.66
2019-03-21T08:38:11.332Z,101686.54
2019-03-21T08:40:44.294Z,101685.88
2019-03-21T08:43:15.611Z,101684.59
2019-03-21T08:48:35.520Z,101688.69
2019-03-21T08:51:43.998Z,101684.27
2019-03-21T08:57:29.406Z,101681.03
2019-03-21T09:00:34.414Z,101678.27
2019-03-21T09:03:44.040Z,101681.50
2019-03-21T09:17:21.801Z,101676.33
2019-03-21T09:20:28.352Z,101672.52
2019-03-21T09:23:21.804Z,101674.78
2019-03-21T09:26:01.636Z,101675.95
2019-03-21T09:31:47.540Z,101684.97
2019-03-21T09:34:53.725Z,101681.30
2019-03-21T09:37:43.580Z,101677.20
2019-03-21T09:40:14.131Z,101669.98
2019-03-21T09:42:50.804Z,101676.77
2019-03-21T09:48:23.746Z,101667.27
2019-03-21T09:54:09.276Z,101661.25
2019-03-21T09:56:33.219Z,101666.00
2019-03-21T09:59:43.712Z,101662.83
2019-03-21T10:02:14.208Z,101663.90
2019-03-21T10:05:04.483Z,101664.45
2019-03-21T10:07:35.903Z,101658.52
2019-03-21T10:10:25.206Z,101655.92
2019-03-21T10:12:57.786Z,101658.16
2019-03-21T10:15:28.462Z,101656.34
2019-03-21T10:17:58.777Z,101660.22
2019-03-21T10:29:37.218Z,101659.22
2019-03-21T10:32:55.814Z,101649.98
2019-03-21T10:35:45.048Z,101652.88
2019-03-21T10:38:46.307Z,101650.11
2019-03-21T10:41:16.733Z,101648.95
2019-03-21T10:44:07.351Z,101646.22
2019-03-21T10:46:37.789Z,101648.95
2019-03-21T10:49:27.022Z,101648.72
2019-03-21T10:52:16.322Z,101637.17
2019-03-21T10:55:24.212Z,101642.77
2019-03-21T10:57:54.619Z,101669.92
2019-03-21T11:00:27.383Z,101669.92
2019-03-21T11:06:08.421Z,101633.84
2019-03-21T11:08:59.509Z,101627.52
2019-03-21T11:14:40.367Z,101626.08
2019-03-21T11:17:43.396Z,101619.51
2019-03-21T11:23:36.864Z,101614.91
2019-03-21T11:26:15.915Z,101610.39
2019-03-21T11:29:05.157Z,101595.63
2019-03-21T11:32:13.025Z,101604.08
2019-03-21T11:34:46.169Z,101609.33
2019-03-21T11:43:40.257Z,101591.59
2019-03-21T11:49:41.700Z,101585.36
2019-03-21T11:55:33.372Z,101578.09
2019-03-21T11:58:24.379Z,101571.66
2019-03-21T12:01:15.662Z,101561.58
2019-03-21T12:03:46.190Z,101562.78
2019-03-21T12:06:35.577Z,101556.47
2019-03-21T12:09:08.128Z,101563.59
2019-03-21T12:11:57.856Z,101547.16
2019-03-21T12:14:47.001Z,101543.52
2019-03-21T12:17:57.614Z,101546.34
2019-03-21T12:20:46.905Z,101535.70
2019-03-21T12:23:47.849Z,101528.15
2019-03-21T12:32:03.541Z,101529.38
2019-03-21T12:38:23.074Z,101518.91
2019-03-21T12:44:42.073Z,101511.35
2019-03-21T12:47:31.925Z,101512.53
2019-03-21T12:50:03.528Z,101507.59
2019-03-21T12:55:25.185Z,101495.23
2019-03-21T12:58:14.376Z,101497.79
2019-03-21T13:01:22.419Z,101479.17
2019-03-21T13:04:00.027Z,101493.78
2019-03-21T13:06:32.716Z,101492.28
2019-03-21T13:09:09.200Z,101484.95
2019-03-21T13:11:39.613Z,101478.76
2019-03-21T13:14:10.968Z,101471.91
2019-03-21T13:16:41.350Z,101463.17
2019-03-21T13:19:20.890Z,101469.45
2019-03-21T13:21:50.968Z,101464.47
2019-03-21T13:24:21.337Z,101459.48
2019-03-21T13:26:54.539Z,101467.52
2019-03-21T13:29:25.213Z,101454.08
2019-03-21T13:31:57.584Z,101458.33
2019-03-21T13:34:28.957Z,101451.05
2019-03-21T13:36:59.402Z,101447.08
2019-03-21T13:39:29.787Z,101426.34
2019-03-21T13:42:00.183Z,101448.01
2019-03-21T13:44:30.973Z,101431.85
2019-03-21T13:47:18.087Z,101437.69
2019-03-21T13:49:48.794Z,101436.33
2019-03-21T13:52:21.209Z,101432.00
2019-03-21T13:54:55.368Z,101433.89
2019-03-21T13:57:33.238Z,101427.84
2019-03-21T14:00:03.660Z,101420.80
2019-03-21T14:02:35.339Z,101422.16
2019-03-21T14:05:10.504Z,101400.86
2019-03-21T14:07:41.022Z,101411.39
2019-03-21T14:10:11.372Z,101419.73
2019-03-21T14:12:44.119Z,101411.06
2019-03-21T14:15:18.767Z,101406.74
2019-03-21T14:17:50.952Z,101405.11
2019-03-21T14:20:24.359Z,101401.14
2019-03-21T14:22:56.628Z,101391.15
2019-03-21T14:25:26.980Z,101398.72
2019-03-21T14:27:58.317Z,101388.36
2019-03-21T14:30:34.537Z,101391.72
2019-03-21T14:33:22.062Z,101385.52
2019-03-21T14:35:44.882Z,101387.30
2019-03-21T14:38:25.851Z,101381.20
2019-03-21T14:40:48.625Z,101383.13
2019-03-21T14:43:20.267Z,101372.64
2019-03-21T14:45:50.672Z,101373.02
2019-03-21T14:48:21.957Z,101370.48
2019-03-21T14:50:53.200Z,101373.81
2019-03-21T14:53:29.216Z,101376.61
2019-03-21T14:56:00.841Z,101372.37
2019-03-21T14:58:32.987Z,101367.11
2019-03-21T15:01:05.467Z,101361.16
2019-03-21T15:03:40.421Z,101373.58
2019-03-21T15:06:13.763Z,101374.39
2019-03-21T15:08:46.102Z,101372.22
2019-03-21T15:11:17.737Z,101363.59
2019-03-21T15:13:49.349Z,101358.34
2019-03-21T15:16:22.207Z,101358.34
2019-03-21T15:18:52.607Z,101352.00
2019-03-21T15:21:30.847Z,101363.30
2019-03-21T15:24:03.237Z,101359.71
2019-03-21T15:26:33.511Z,101349.94
2019-03-21T15:29:08.842Z,101356.21
2019-03-21T15:31:40.071Z,101358.13
2019-03-21T15:34:17.872Z,101347.67
2019-03-21T15:36:49.469Z,101347.59
2019-03-21T15:39:20.779Z,101344.87
2019-03-21T15:41:51.600Z,101342.89
2019-03-21T15:44:25.403Z,101338.06
2019-03-21T15:46:58.567Z,101336.50
2019-03-21T15:49:30.520Z,101332.30
2019-03-21T15:52:02.714Z,101329.77
2019-03-21T15:54:39.572Z,101329.03
2019-03-21T15:57:11.483Z,101330.75
2019-03-21T15:59:43.606Z,101329.75
2019-03-21T16:02:13.954Z,101328.30
2019-03-21T16:04:48.563Z,101322.46
2019-03-21T16:07:20.740Z,101325.91
2019-03-21T16:09:58.677Z,101327.94
2019-03-21T16:12:32.378Z,101327.09
2019-03-21T16:15:15.398Z,101323.53
2019-03-21T16:18:02.328Z,101319.88
2019-03-21T16:20:37.212Z,101314.74
2019-03-21T16:23:12.153Z,101316.17
2019-03-21T16:25:45.014Z,101312.38
2019-03-21T16:28:20.635Z,101301.94
2019-03-21T16:31:00.248Z,101306.00
2019-03-21T16:33:33.127Z,101306.00
2019-03-21T16:36:09.602Z,101291.08
2019-03-21T16:38:40.752Z,101306.09
2019-03-21T16:41:14.670Z,101307.34
2019-03-21T16:43:51.697Z,101309.67
2019-03-21T16:46:33.190Z,101300.28
2019-03-21T16:49:13.485Z,101300.12
2019-03-21T16:51:51.463Z,101302.62
2019-03-21T16:54:26.755Z,101299.64
2019-03-21T16:57:00.790Z,101305.19
2019-03-21T16:59:36.510Z,101300.75
2019-03-21T17:02:13.865Z,101297.73
2019-03-21T17:04:51.365Z,101296.50
2019-03-21T17:07:27.071Z,101299.21
2019-03-21T17:09:59.721Z,101295.94
2019-03-21T17:12:32.304Z,101307.22
2019-03-21T17:15:02.757Z,101295.88
2019-03-21T17:17:34.047Z,101301.56
2019-03-21T17:20:11.493Z,101301.99
2019-03-21T17:22:44.255Z,101297.52
2019-03-21T17:25:20.674Z,101306.55
2019-03-21T17:27:56.447Z,101300.73
2019-03-21T17:30:31.644Z,101307.16
2019-03-21T17:33:06.027Z,101307.95
2019-03-21T17:35:37.757Z,101307.95
2019-03-21T17:38:08.087Z,101310.68
2019-03-21T17:40:41.038Z,101308.50
2019-03-21T17:43:13.170Z,101308.50
2019-03-21T17:45:43.555Z,101315.53
2019-03-21T17:48:16.389Z,101311.83
2019-03-21T17:50:49.529Z,101314.33
2019-03-21T17:53:20.948Z,101318.22
2019-03-21T17:55:52.239Z,101321.56
2019-03-21T17:58:22.547Z,101316.20
2019-03-21T18:00:59.745Z,101318.40
2019-03-21T18:03:34.332Z,101319.28
2019-03-21T18:06:08.229Z,101324.45
2019-03-21T18:08:41.273Z,101320.41
2019-03-21T18:11:18.942Z,101313.92
2019-03-21T18:13:57.032Z,101315.52
2019-03-21T18:16:33.137Z,101323.12
2019-03-21T18:19:04.292Z,101317.31
2019-03-21T18:21:37.077Z,101317.31
2019-03-21T18:24:14.213Z,101320.30
2019-03-21T18:26:54.711Z,101322.16
2019-03-21T18:29:26.316Z,101324.52
2019-03-21T18:31:59.525Z,101316.64
2019-03-21T18:34:32.969Z,101323.39
2019-03-21T18:37:04.721Z,101321.61
2019-03-21T18:39:39.456Z,101326.06
2019-03-21T18:42:09.866Z,101322.59
2019-03-21T18:44:40.203Z,101321.25
2019-03-21T18:47:11.460Z,101325.92
2019-03-21T18:49:42.151Z,101332.67
2019-03-21T18:52:13.631Z,101337.41
2019-03-21T18:54:44.088Z,101333.93
2019-03-21T18:57:14.433Z,101336.21
2019-03-21T18:59:44.886Z,101341.53
2019-03-21T19:02:17.361Z,101337.47
2019-03-21T19:05:01.034Z,101336.98
2019-03-21T19:07:34.435Z,101328.37
2019-03-21T19:10:07.944Z,101333.02
2019-03-21T19:12:45.818Z,101328.68
2019-03-21T19:15:22.744Z,101328.73
2019-03-21T19:17:53.242Z,101326.70
2019-03-21T19:20:24.641Z,101337.48
2019-03-21T19:22:55.323Z,101327.80
2019-03-21T19:25:30.409Z,101337.24
2019-03-21T19:28:01.085Z,101335.41
2019-03-21T19:30:32.699Z,101339.65
2019-03-21T19:33:06.719Z,101333.05
2019-03-21T19:35:40.166Z,101331.98
2019-03-21T19:38:11.674Z,101315.03
2019-03-21T19:40:47.343Z,101315.03
2019-03-21T19:43:19.053Z,101335.05
2019-03-21T19:45:49.436Z,101341.30
2019-03-21T19:48:22.412Z,101343.30
2019-03-21T19:50:54.033Z,101344.04
2019-03-21T19:53:28.876Z,101341.16
2019-03-21T19:56:08.752Z,101339.30
2019-03-21T19:58:41.159Z,101341.36
2019-03-21T20:01:19.867Z,101331.97
2019-03-21T20:03:52.763Z,101332.97
2019-03-21T20:06:24.869Z,101324.97
2019-03-21T20:09:08.631Z,101334.75
2019-03-21T20:11:45.903Z,101332.56
2019-03-21T20:14:17.640Z,101329.33
2019-03-21T20:16:49.728Z,101341.80
2019-03-21T20:19:21.059Z,101336.45
2019-03-21T20:21:52.479Z,101335.45
2019-03-21T20:24:22.827Z,101342.19
2019-03-21T20:26:56.626Z,101345.04
2019-03-21T20:29:31.779Z,101349.92
2019-03-21T20:32:04.770Z,101348.73
2019-03-21T20:34:41.223Z,101356.82
2019-03-21T20:37:13.903Z,101354.31
2019-03-21T20:39:47.189Z,101360.55
2019-03-21T20:42:19.455Z,101351.23
2019-03-21T20:44:52.109Z,101351.77
2019-03-21T20:47:25.320Z,101352.08
2019-03-21T20:50:00.464Z,101352.08
2019-03-21T20:52:32.094Z,101347.69
2019-03-21T20:55:03.409Z,101352.81
2019-03-21T20:57:34.633Z,101352.81
2019-03-21T21:00:07.099Z,101358.92
2019-03-21T21:02:43.693Z,101356.09
2019-03-21T21:05:15.437Z,101355.41
2019-03-21T21:07:49.091Z,101351.87
2019-03-21T21:10:34.282Z,101348.64
2019-03-21T21:13:09.698Z,101348.64
2019-03-21T21:15:40.073Z,101352.00
2019-03-21T21:18:12.357Z,101354.03
2019-03-21T21:20:44.763Z,101349.80
2019-03-21T21:23:17.755Z,101357.86
2019-03-21T21:25:50.959Z,101356.32
2019-03-21T21:28:21.688Z,101355.16
2019-03-21T21:31:00.005Z,101353.62
2019-03-21T21:33:31.735Z,101358.00
2019-03-21T21:36:04.260Z,101352.30
2019-03-21T21:38:40.414Z,101339.80
2019-03-21T21:41:17.861Z,101349.39
2019-03-21T21:43:54.315Z,101337.82
2019-03-21T21:46:25.571Z,101341.70
2019-03-21T21:48:59.184Z,101335.97
2019-03-21T21:51:42.690Z,101337.50
2019-03-21T21:54:14.021Z,101344.70
2019-03-21T21:56:44.381Z,101337.29
2019-03-21T21:59:17.292Z,101342.67
2019-03-21T22:01:50.909Z,101338.09
2019-03-21T22:04:24.928Z,101338.70
2019-03-21T22:06:55.658Z,101340.68
2019-03-21T22:09:26.087Z,101341.70
2019-03-21T22:11:58.489Z,101342.52
2019-03-21T22:14:33.305Z,101340.34
2019-03-21T22:17:03.756Z,101339.63
2019-03-21T22:19:34.091Z,101335.25
2019-03-21T22:22:04.468Z,101336.53
2019-03-21T22:24:37.683Z,101339.86
2019-03-21T22:27:11.347Z,101346.98
2019-03-21T22:29:41.725Z,101338.36
2019-03-21T22:32:12.159Z,101343.86
2019-03-21T22:34:42.448Z,101338.80
2019-03-21T22:37:12.962Z,101339.73
2019-03-21T22:39:46.743Z,101339.34
2019-03-21T22:42:17.207Z,101344.12
2019-03-21T22:44:50.667Z,101334.33
2019-03-21T22:47:23.979Z,101332.97
2019-03-21T22:50:21.121Z,101331.89
2019-03-21T22:52:57.649Z,101323.73
2019-03-21T22:55:47.584Z,101337.82
2019-03-21T22:58:50.877Z,101328.06
2019-03-21T23:01:21.799Z,101328.42
2019-03-21T23:03:52.154Z,101329.03
2019-03-21T23:06:26.992Z,101323.30
2019-03-21T23:08:59.899Z,101320.67
2019-03-21T23:11:35.442Z,101315.05
2019-03-21T23:14:13.613Z,101317.00
2019-03-21T23:16:44.477Z,101317.63
2019-03-21T23:19:16.969Z,101316.89
2019-03-21T23:21:54.631Z,101321.20
2019-03-21T23:24:26.093Z,101322.84
2019-03-21T23:27:08.396Z,101323.69
2019-03-21T23:29:41.037Z,101330.03
2019-03-21T23:32:37.001Z,101325.34
2019-03-21T23:35:42.786Z,101327.83
2019-03-21T23:38:20.876Z,101326.61
2019-03-21T23:40:56.442Z,101327.02
2019-03-21T23:43:30.818Z,101324.85
2019-03-21T23:46:07.072Z,101334.61
2019-03-21T23:48:39.834Z,101324.00
2019-03-21T23:51:17.780Z,101324.18
2019-03-21T23:54:02.350Z,101314.63
2019-03-21T23:56:40.410Z,101316.91
2019-03-21T23:59:12.021Z,101317.56
